Time;durP1;ratioP1;P1;durP2;ratioP2;P2;SDS_P1;SDS_P2;PMS_P1;PMS_P2;Temp;Humidity;BMP_temperature;BMP_pressure;BME280_temperature;BME280_humidity;BME280_pressure;Samples;Min_cycle;Max_cycle;Signal;HPM_P1;HPM_P2
2022/09/14 00:01:34;;;;;;;3.40;2.57;;;;;;;17.23;100.00;95627.81;5013315;28;101831;-64
2022/09/14 00:04:05;;;;;;;2.70;2.50;;;;;;;17.22;100.00;95635.06;5013369;28;102521;-63
2022/09/14 00:06:32;;;;;;;5.20;2.50;;;;;;;17.20;100.00;95633.78;5012803;28;102870;-63
2022/09/14 00:09:00;;;;;;;3.10;2.17;;;;;;;17.12;100.00;95631.88;5013244;28;101894;-63
2022/09/14 00:11:29;;;;;;;2.57;2.40;;;;;;;17.06;100.00;95625.81;5013321;28;102607;-63
2022/09/14 00:13:58;;;;;;;2.50;2.30;;;;;;;17.07;100.00;95626.63;5012661;28;103142;-63
2022/09/14 00:16:26;;;;;;;3.63;2.60;;;;;;;17.10;100.00;95642.09;5011789;28;101998;-63
2022/09/14 00:18:57;;;;;;;5.10;2.90;;;;;;;17.10;100.00;95642.91;5011767;28;104017;-64
2022/09/14 00:21:25;;;;;;;2.70;2.50;;;;;;;17.04;100.00;95646.84;5016072;28;103079;-64
2022/09/14 00:23:53;;;;;;;3.60;2.90;;;;;;;17.07;100.00;95648.09;5011771;28;106597;-64
2022/09/14 00:26:23;;;;;;;2.57;2.37;;;;;;;16.92;100.00;95643.94;5010728;28;105227;-64
2022/09/14 00:28:51;;;;;;;2.57;2.37;;;;;;;16.97;100.00;95634.94;5013307;28;102005;-63
2022/09/14 00:31:20;;;;;;;2.30;2.10;;;;;;;17.02;100.00;95632.13;5012900;28;102337;-64
2022/09/14 00:33:48;;;;;;;2.90;2.63;;;;;;;16.94;100.00;95632.88;5010874;28;105346;-63
2022/09/14 00:36:22;;;;;;;2.80;2.60;;;;;;;17.00;100.00;95640.47;5011359;28;102112;-63
2022/09/14 00:38:50;;;;;;;2.83;2.63;;;;;;;16.91;100.00;95644.22;5011626;28;105130;-63
2022/09/14 00:41:19;;;;;;;2.73;2.50;;;;;;;16.80;100.00;95635.66;5012325;28;102666;-63
2022/09/14 00:43:55;;;;;;;3.03;2.50;;;;;;;16.85;100.00;95622.06;5014467;28;101900;-63
2022/09/14 00:46:23;;;;;;;4.03;2.23;;;;;;;16.80;100.00;95618.75;5010866;28;105309;-63
2022/09/14 00:48:50;;;;;;;2.63;2.50;;;;;;;16.79;100.00;95609.09;5011838;28;103578;-63
2022/09/14 00:51:21;;;;;;;4.80;2.70;;;;;;;16.74;100.00;95615.38;5011351;28;105232;-64
2022/09/14 00:53:49;;;;;;;2.60;2.40;;;;;;;16.75;100.00;95616.97;5010858;28;105348;-64
2022/09/14 00:56:16;;;;;;;2.93;2.50;;;;;;;16.72;100.00;95622.94;5011322;28;101970;-64
2022/09/14 00:58:46;;;;;;;3.17;2.87;;;;;;;16.61;100.00;95618.94;5012202;28;102303;-64
2022/09/14 01:01:14;;;;;;;3.70;2.80;;;;;;;16.60;100.00;95613.88;5011931;28;102785;-63
2022/09/14 01:03:41;;;;;;;5.37;2.93;;;;;;;16.69;100.00;95612.03;5011067;28;101886;-63
2022/09/14 01:06:17;;;;;;;2.20;2.10;;;;;;;16.73;100.00;95607.66;5013987;28;103683;-64
2022/09/14 01:08:57;;;;;;;3.77;2.63;;;;;;;16.82;100.00;95619.22;5011031;28;101882;-64
2022/09/14 01:11:37;;;;;;;3.43;2.30;;;;;;;16.77;100.00;95619.34;5010950;28;105355;-63
2022/09/14 01:14:11;;;;;;;4.17;2.50;;;;;;;16.73;100.00;95624.53;5010365;28;105155;-64
2022/09/14 01:16:48;;;;;;;2.50;2.30;;;;;;;16.82;100.00;95616.53;5010858;28;101915;-63
2022/09/14 01:19:23;;;;;;;2.30;2.10;;;;;;;16.84;100.00;95606.28;5011046;28;104342;-64
2022/09/14 01:21:52;;;;;;;2.63;2.07;;;;;;;16.89;100.00;95595.41;5010165;28;105941;-64
2022/09/14 01:24:26;;;;;;;1.80;1.70;;;;;;;16.91;100.00;95587.84;5011700;28;101942;-64
2022/09/14 01:27:21;;;;;;;3.50;1.63;;;;;;;16.93;100.00;95574.88;5013655;28;105615;-63
2022/09/14 01:29:52;;;;;;;1.70;1.60;;;;;;;16.98;100.00;95572.84;4994239;28;103300;-64
2022/09/14 01:32:25;;;;;;;1.90;1.63;;;;;;;17.01;100.00;95571.44;5010890;28;105572;-64
2022/09/14 01:35:01;;;;;;;3.77;2.00;;;;;;;17.02;100.00;95568.47;5011482;28;102846;-64
2022/09/14 01:37:33;;;;;;;2.47;1.50;;;;;;;17.00;100.00;95569.88;5012151;28;101787;-63
2022/09/14 01:40:05;;;;;;;2.00;1.37;;;;;;;16.99;100.00;95568.25;5010567;28;105500;-63
2022/09/14 01:42:35;;;;;;;2.60;1.40;;;;;;;17.01;100.00;95571.44;5011469;28;103141;-64
2022/09/14 01:45:09;;;;;;;2.43;1.50;;;;;;;16.99;100.00;95574.44;5011704;28;101903;-64
2022/09/14 01:47:41;;;;;;;1.50;1.40;;;;;;;17.01;100.00;95571.44;5011857;28;102353;-64
2022/09/14 01:50:15;;;;;;;1.60;1.30;;;;;;;17.02;100.00;95559.59;5012803;28;105807;-64
2022/09/14 01:52:45;;;;;;;2.83;1.40;;;;;;;17.05;100.00;95561.69;5010495;28;105813;-63
2022/09/14 01:55:18;;;;;;;1.63;1.43;;;;;;;17.06;100.00;95560.56;5011399;28;102698;-64
2022/09/14 01:57:51;;;;;;;3.07;1.40;;;;;;;17.06;100.00;95563.25;5011727;28;102306;-64
2022/09/14 02:00:21;;;;;;;1.43;1.30;;;;;;;17.08;100.00;95552.97;5010324;28;104999;-63
2022/09/14 02:02:53;;;;;;;1.83;1.30;;;;;;;17.07;100.00;95552.19;5010926;28;103101;-64
2022/09/14 02:05:25;;;;;;;2.57;1.20;;;;;;;17.07;100.00;95559.47;5010151;28;101863;-63
2022/09/14 02:07:52;;;;;;;1.57;1.47;;;;;;;17.07;100.00;95565.59;5011641;28;102277;-64
2022/09/14 02:10:20;;;;;;;1.80;1.30;;;;;;;17.07;100.00;95565.59;5010065;28;102860;-64
2022/09/14 02:12:48;;;;;;;3.27;1.60;;;;;;;17.04;100.00;95554.69;5014721;28;101813;-64
2022/09/14 02:15:15;;;;;;;1.57;1.40;;;;;;;17.03;100.00;95547.75;5009513;28;104353;-63
2022/09/14 02:17:43;;;;;;;2.03;1.53;;;;;;;17.04;100.00;95547.44;5009906;28;101898;-64
2022/09/14 02:20:16;;;;;;;1.40;1.30;;;;;;;17.09;100.00;95543.81;5011381;28;102265;-64
2022/09/14 02:22:43;;;;;;;1.73;1.30;;;;;;;17.09;100.00;95536.56;5009176;28;105804;-64
2022/09/14 02:25:10;;;;;;;2.80;2.00;;;;;;;17.05;100.00;95543.66;5010824;28;101889;-64
2022/09/14 02:27:37;;;;;;;1.67;1.57;;;;;;;16.98;100.00;95537.13;5009807;28;105554;-63
2022/09/14 02:30:07;;;;;;;1.67;1.57;;;;;;;16.99;100.00;95536.84;5010650;28;102704;-63
2022/09/14 02:32:41;;;;;;;1.53;1.43;;;;;;;16.99;100.00;95533.34;5011352;28;101715;-63
2022/09/14 02:35:16;;;;;;;2.27;1.40;;;;;;;16.97;100.00;95531.00;5013975;28;102374;-63
2022/09/14 02:37:51;;;;;;;1.60;1.50;;;;;;;16.97;100.00;95527.50;5010823;28;101734;-63
2022/09/14 02:40:28;;;;;;;1.70;1.60;;;;;;;16.94;100.00;95533.50;5011236;28;102536;-63
2022/09/14 02:43:06;;;;;;;2.03;1.60;;;;;;;16.84;100.00;95544.53;5010418;28;102531;-64
2022/09/14 02:45:40;;;;;;;2.63;1.63;;;;;;;16.81;100.00;95526.34;5011171;28;101723;-64
2022/09/14 02:48:14;;;;;;;1.50;1.40;;;;;;;16.83;100.00;95526.81;5009300;28;105211;-64
2022/09/14 02:50:50;;;;;;;2.93;1.40;;;;;;;16.76;100.00;95531.84;5008665;28;103967;-63
2022/09/14 02:53:22;;;;;;;1.67;1.40;;;;;;;16.75;100.00;95528.38;5010785;28;101833;-64
2022/09/14 02:55:54;;;;;;;2.57;1.30;;;;;;;16.78;100.00;95530.44;5010830;28;102357;-63
2022/09/14 02:58:22;;;;;;;1.20;1.20;;;;;;;16.77;100.00;95528.06;5013685;28;103268;-64
2022/09/14 03:00:51;;;;;;;1.50;1.40;;;;;;;16.77;100.00;95520.78;5009254;28;104059;-64
2022/09/14 03:03:20;;;;;;;3.53;1.57;;;;;;;16.80;100.00;95522.88;5009828;28;102813;-64
2022/09/14 03:05:47;;;;;;;1.80;1.70;;;;;;;16.78;100.00;95522.38;5010384;28;102116;-64
2022/09/14 03:08:14;;;;;;;3.07;1.70;;;;;;;16.71;100.00;95518.56;5009353;28;105255;-63
2022/09/14 03:10:43;;;;;;;2.90;1.50;;;;;;;16.69;100.00;95512.72;5008199;28;105405;-63
2022/09/14 03:13:11;;;;;;;1.50;1.40;;;;;;;16.71;100.00;95505.13;5010360;28;101933;-63
2022/09/14 03:15:38;;;;;;;1.50;1.40;;;;;;;16.72;100.00;95504.81;5009041;28;105617;-63
2022/09/14 03:18:08;;;;;;;1.67;1.57;;;;;;;16.71;100.00;95502.44;5008543;28;105774;-64
2022/09/14 03:20:35;;;;;;;4.10;1.90;;;;;;;16.67;100.00;95493.44;5012486;28;101698;-64
2022/09/14 03:23:03;;;;;;;1.93;1.47;;;;;;;16.59;100.00;95499.56;5008567;28;102507;-64
2022/09/14 03:25:31;;;;;;;1.60;1.50;;;;;;;16.65;100.00;95498.31;5009754;28;101847;-63
2022/09/14 03:28:00;;;;;;;1.60;1.50;;;;;;;16.67;100.00;95499.59;5010536;28;102356;-63
2022/09/14 03:30:28;;;;;;;2.27;1.47;;;;;;;16.69;100.00;95505.47;5008368;28;105102;-63
2022/09/14 03:32:54;;;;;;;3.77;1.67;;;;;;;16.70;100.00;95506.22;5010201;28;101688;-64
2022/09/14 03:35:23;;;;;;;2.50;1.53;;;;;;;16.68;100.00;95508.44;5010079;28;102557;-63
2022/09/14 03:37:50;;;;;;;3.63;1.60;;;;;;;16.62;100.00;95515.06;5008009;28;104236;-63
2022/09/14 03:40:18;;;;;;;3.10;1.70;;;;;;;16.68;100.00;95509.22;5012195;28;101940;-64
2022/09/14 03:42:47;;;;;;;1.40;1.40;;;;;;;16.74;100.00;95501.84;5009679;28;102703;-63
2022/09/14 03:45:16;;;;;;;1.53;1.43;;;;;;;16.75;100.00;95493.47;5010029;28;101886;-63
2022/09/14 03:47:43;;;;;;;3.20;1.60;;;;;;;16.77;100.00;95490.47;5008790;28;105057;-63
2022/09/14 03:50:12;;;;;;;3.30;1.73;;;;;;;16.77;100.00;95499.31;5008423;28;103870;-63
2022/09/14 03:52:41;;;;;;;2.47;1.67;;;;;;;16.73;100.00;95489.53;5009903;28;101698;-63
2022/09/14 03:55:09;;;;;;;2.80;1.80;;;;;;;16.74;100.00;95496.47;5008806;28;105193;-63
2022/09/14 03:57:36;;;;;;;3.00;1.60;;;;;;;16.75;100.00;95496.16;5007982;28;105421;-63
2022/09/14 04:00:05;;;;;;;1.97;1.70;;;;;;;16.75;100.00;95490.78;5010111;28;101716;-63
2022/09/14 04:02:38;;;;;;;2.67;1.60;;;;;;;16.76;100.00;95494.25;5009543;28;102132;-63
2022/09/14 04:05:06;;;;;;;2.50;1.60;;;;;;;16.74;100.00;95496.47;5009726;28;102039;-63
2022/09/14 04:07:33;;;;;;;1.70;1.60;;;;;;;16.74;100.00;95501.84;5009762;28;101679;-63
2022/09/14 04:10:02;;;;;;;2.23;1.50;;;;;;;16.65;100.00;95498.31;5007734;28;105317;-63
2022/09/14 04:12:29;;;;;;;1.43;1.33;;;;;;;16.59;100.00;95496.88;5009514;28;101823;-63
2022/09/14 04:14:55;;;;;;;2.73;1.40;;;;;;;16.54;100.00;95489.75;5008282;28;105085;-63
2022/09/14 04:17:24;;;;;;;2.00;1.90;;;;;;;16.57;100.00;95491.03;5007754;28;105550;-63
2022/09/14 04:19:51;;;;;;;1.50;1.40;;;;;;;16.56;100.00;95500.97;5009714;28;101900;-63
2022/09/14 04:22:18;;;;;;;1.90;1.33;;;;;;;16.58;100.00;95489.91;5008037;28;103840;-63
2022/09/14 04:24:46;;;;;;;2.37;1.80;;;;;;;16.59;100.00;95488.81;5011813;28;102729;-63
2022/09/14 04:27:15;;;;;;;1.50;1.37;;;;;;;16.51;100.00;95481.53;5007942;28;105283;-64
2022/09/14 04:29:42;;;;;;;1.60;1.50;;;;;;;16.51;100.00;95487.66;5012610;28;102595;-63
2022/09/14 04:32:09;;;;;;;3.13;1.90;;;;;;;16.53;100.00;95500.78;5019813;28;101971;-63
2022/09/14 04:34:36;;;;;;;3.70;1.90;;;;;;;16.51;100.00;95494.94;5030380;27;104864;-63
2022/09/14 04:37:13;;;;;;;3.17;1.73;;;;;;;16.56;100.00;95490.22;5024733;28;102781;-66
2022/09/14 04:39:41;;;;;;;3.80;1.73;;;;;;;16.48;100.00;95499.03;5025771;28;102400;-65
2022/09/14 04:42:08;;;;;;;2.33;1.90;;;;;;;16.54;100.00;95502.38;5033241;28;102468;-64
2022/09/14 04:44:37;;;;;;;2.73;1.90;;;;;;;16.59;100.00;95496.88;5032509;28;102536;-65
2022/09/14 04:47:08;;;;;;;2.07;1.90;;;;;;;16.58;100.00;95495.28;5035258;28;102264;-63
2022/09/14 04:49:35;;;;;;;1.53;1.43;;;;;;;16.62;100.00;95493.56;5030078;28;105950;-64
2022/09/14 04:52:03;;;;;;;2.00;1.90;;;;;;;16.60;100.00;95491.19;5032653;27;101896;-63
2022/09/14 04:54:30;;;;;;;2.47;1.97;;;;;;;16.50;100.00;95501.38;5031276;28;105116;-63
2022/09/14 04:57:08;;;;;;;2.20;2.00;;;;;;;16.58;100.00;95488.00;5032070;28;102582;-64
2022/09/14 04:59:37;;;;;;;2.43;2.07;;;;;;;16.63;100.00;95493.25;5011083;28;101873;-63
2022/09/14 05:02:04;;;;;;;1.80;1.67;;;;;;;16.57;100.00;95496.41;5012408;28;103156;-64
2022/09/14 05:04:31;;;;;;;2.33;2.00;;;;;;;16.64;100.00;95505.59;5012103;28;103247;-64
2022/09/14 05:07:00;;;;;;;6.83;2.23;;;;;;;16.57;100.00;95502.53;5028232;28;101951;-63
2022/09/14 05:09:27;;;;;;;2.70;2.00;;;;;;;16.60;100.00;95496.56;5033916;28;105020;-64
2022/09/14 05:11:54;;;;;;;2.20;1.93;;;;;;;16.65;100.00;95509.06;5029590;28;101865;-64
2022/09/14 05:14:21;;;;;;;2.67;2.17;;;;;;;16.68;100.00;95514.59;5012706;28;103171;-63
2022/09/14 05:17:25;;;;;;;1.97;1.77;;;;;;;16.76;100.00;95521.91;5011515;28;103119;-63
2022/09/14 05:19:54;;;;;;;2.37;2.10;;;;;;;16.81;100.00;95510.22;5012246;28;102125;-67
2022/09/14 05:22:21;;;;;;;2.37;1.80;;;;;;;16.89;100.00;95504.88;5010948;28;105099;-63
2022/09/14 05:24:48;;;;;;;4.37;1.90;;;;;;;16.99;100.00;95514.53;5011255;28;102682;-64
2022/09/14 05:27:28;;;;;;;5.53;2.10;;;;;;;17.06;100.00;95513.00;5010601;28;101987;-64
2022/09/14 05:29:55;;;;;;;3.23;1.60;;;;;;;17.19;100.00;95516.66;5010946;28;105133;-64
2022/09/14 05:32:22;;;;;;;2.97;1.70;;;;;;;17.21;100.00;95534.06;5013444;28;102033;-64
2022/09/14 05:34:50;;;;;;;1.63;1.40;;;;;;;17.27;100.00;95510.53;5010307;28;105026;-64
2022/09/14 05:37:24;;;;;;;1.60;1.50;;;;;;;17.33;100.00;95520.03;5010215;28;105709;-64
2022/09/14 05:39:51;;;;;;;1.80;1.50;;;;;;;17.37;100.00;95504.84;5010791;28;101829;-64
2022/09/14 05:42:18;;;;;;;3.70;1.63;;;;;;;17.43;100.00;95506.34;5010581;28;104811;-64
2022/09/14 05:44:45;;;;;;;4.33;1.73;;;;;;;17.44;100.00;95500.63;5009902;28;105524;-64
2022/09/14 05:47:19;;;;;;;4.00;1.50;;;;;;;17.45;100.00;95498.72;5010206;28;102153;-64
2022/09/14 05:49:46;;;;;;;2.83;1.40;;;;;;;17.47;100.00;95494.63;5010271;28;105234;-64
2022/09/14 05:52:13;;;;;;;3.50;1.60;;;;;;;17.51;100.00;95500.97;5013223;28;105317;-64
2022/09/14 05:54:42;;;;;;;2.67;1.73;;;;;;;17.50;100.00;95506.66;5010381;28;104174;-64
2022/09/14 05:57:22;;;;;;;2.47;1.57;;;;;;;17.50;100.00;95498.59;5011411;28;102508;-64
2022/09/14 05:59:49;;;;;;;2.00;1.40;;;;;;;17.53;100.00;95514.06;5012211;28;101727;-64
2022/09/14 06:02:16;;;;;;;3.20;1.63;;;;;;;17.47;100.00;95486.56;5010484;28;105212;-63
2022/09/14 06:04:42;;;;;;;4.83;2.10;;;;;;;17.49;100.00;95491.63;5010952;28;102614;-64
2022/09/14 06:07:14;;;;;;;4.23;1.83;;;;;;;17.51;100.00;95489.41;5011867;28;102269;-64
2022/09/14 06:09:42;;;;;;;1.50;1.40;;;;;;;17.50;100.00;95493.22;5010470;28;105239;-64
2022/09/14 06:12:09;;;;;;;2.90;1.57;;;;;;;17.52;100.00;95491.78;5009683;28;105309;-64
2022/09/14 06:14:36;;;;;;;6.43;1.83;;;;;;;17.51;100.00;95490.22;5013767;28;101953;-64
2022/09/14 06:17:32;;;;;;;2.77;2.10;;;;;;;17.51;100.00;95506.34;5010895;28;102618;-64
2022/09/14 06:20:07;;;;;;;3.77;2.40;;;;;;;17.44;100.00;95508.69;5011824;28;101797;-63
2022/09/14 06:22:34;;;;;;;4.27;2.23;;;;;;;17.44;100.00;95500.63;5010155;28;105587;-64
2022/09/14 06:25:03;;;;;;;3.03;2.20;;;;;;;17.51;100.00;95500.16;5009229;28;105847;-64
2022/09/14 06:28:03;;;;;;;2.73;2.40;;;;;;;17.53;100.00;95509.50;5011479;28;101835;-64
2022/09/14 06:30:30;;;;;;;3.97;2.00;;;;;;;17.51;100.00;95500.16;5010001;28;105299;-64
2022/09/14 06:32:57;;;;;;;2.10;1.90;;;;;;;17.44;100.00;95510.59;5010837;28;102818;-64
2022/09/14 06:35:54;;;;;;;5.27;2.10;;;;;;;17.56;100.00;95497.31;5009793;28;102185;-64
2022/09/14 06:38:21;;;;;;;2.20;2.00;;;;;;;17.59;100.00;95502.06;5014162;28;102438;-64
2022/09/14 06:40:55;;;;;;;2.50;2.03;;;;;;;17.55;100.00;95507.28;5009887;28;101981;-64
2022/09/14 06:43:23;;;;;;;2.50;2.10;;;;;;;17.54;100.00;95510.28;5011139;28;104879;-64
2022/09/14 06:46:22;;;;;;;2.77;1.90;;;;;;;17.64;100.00;95512.66;5010456;28;102482;-63
2022/09/14 06:48:51;;;;;;;3.13;2.27;;;;;;;17.63;100.00;95511.88;5009358;28;101888;-63
2022/09/14 06:51:25;;;;;;;2.30;2.00;;;;;;;17.60;100.00;95509.81;5009570;28;106470;-64
2022/09/14 06:53:52;;;;;;;2.40;2.07;;;;;;;17.53;100.00;95514.88;5010662;28;102579;-64
2022/09/14 06:59:43;;;;;;;2.13;2.00;;;;;;;17.68;100.00;95519.00;5015872;28;102513;-63
2022/09/14 07:02:12;;;;;;;4.00;2.03;;;;;;;17.77;100.00;95519.78;5012296;28;105593;-64
2022/09/14 07:04:39;;;;;;;3.47;2.30;;;;;;;17.78;100.00;95524.06;5010880;28;101933;-64
2022/09/14 07:07:23;;;;;;;2.53;1.87;;;;;;;17.79;100.00;95529.13;5010121;28;102832;-64
2022/09/14 07:09:50;;;;;;;2.10;1.87;;;;;;;17.82;100.00;95519.66;5009481;28;101990;-71
2022/09/14 07:12:17;;;;;;;4.50;1.77;;;;;;;17.85;100.00;95516.31;5010772;28;102471;-63
2022/09/14 07:14:46;;;;;;;3.43;1.43;;;;;;;17.89;100.00;95525.34;5010078;28;102496;-63
2022/09/14 07:17:30;;;;;;;4.97;1.80;;;;;;;17.86;100.00;95528.63;5009169;28;102075;-63
2022/09/14 07:20:06;;;;;;;3.03;1.73;;;;;;;17.85;100.00;95538.63;5009082;28;105571;-64
2022/09/14 07:22:34;;;;;;;2.77;1.73;;;;;;;17.95;100.00;95526.75;5010022;28;103208;-63
2022/09/14 07:25:01;;;;;;;3.23;1.93;;;;;;;18.04;100.00;95522.16;5013887;28;101824;-63
2022/09/14 07:27:29;;;;;;;3.90;2.00;;;;;;;18.18;100.00;95522.78;5008559;28;105153;-63
2022/09/14 07:29:58;;;;;;;5.13;1.90;;;;;;;18.24;100.00;95524.19;5016136;28;101941;-64
2022/09/14 07:32:25;;;;;;;4.83;2.07;;;;;;;18.29;100.00;95532.09;5010354;28;102407;-69
2022/09/14 07:34:52;;;;;;;3.70;1.77;;;;;;;18.50;100.00;95508.81;5009276;28;102574;-63
2022/09/14 07:37:32;;;;;;;3.77;1.60;;;;;;;18.90;100.00;95513.59;5008964;28;102045;-63
2022/09/14 07:40:00;;;;;;;4.23;1.80;;;;;;;19.11;100.00;95500.16;5009114;28;104845;-62
2022/09/14 07:42:26;;;;;;;2.60;1.80;;;;;;;19.30;100.00;95489.81;5009687;28;101753;-63
2022/09/14 07:44:53;;;;;;;2.30;1.43;;;;;;;19.43;100.00;95480.66;5012326;28;101914;-63
2022/09/14 07:47:27;;;;;;;4.10;2.00;;;;;;;19.51;100.00;95488.69;5009591;28;103146;-64
2022/09/14 07:50:01;;;;;;;4.13;1.70;;;;;;;19.58;100.00;95493.56;5008268;28;101832;-65
2022/09/14 07:52:29;;;;;;;3.70;1.43;;;;;;;19.65;100.00;95494.63;5009934;28;104009;-65
2022/09/14 07:54:56;;;;;;;8.10;1.67;;;;;;;19.69;100.00;95492.06;5007950;28;105826;-64
2022/09/14 07:57:30;;;;;;;1.30;1.20;;;;;;;19.63;100.00;95498.78;5008491;28;101955;-64
2022/09/14 07:59:57;;;;;;;2.17;1.40;;;;;;;19.67;100.00;95491.63;5010119;28;102312;-64
2022/09/14 08:02:27;;;;;;;1.80;1.10;;;;;;;19.64;100.00;95486.88;5009614;28;102956;-64
2022/09/14 08:04:59;;;;;;;1.70;1.23;;;;;;;19.73;100.00;95485.66;5007228;28;101942;-63
2022/09/14 08:07:38;;;;;;;3.07;1.23;;;;;;;19.91;100.00;95478.25;5010079;28;102124;-63
2022/09/14 08:10:09;;;;;;;1.30;1.20;;;;;;;19.97;100.00;95480.41;5009518;28;102195;-63
2022/09/14 08:12:38;;;;;;;1.53;1.43;;;;;;;20.23;100.00;95477.50;5013743;28;102080;-63
2022/09/14 08:15:09;;;;;;;1.57;1.23;;;;;;;20.34;100.00;95490.25;5012582;28;102856;-63
2022/09/14 08:17:38;;;;;;;2.33;1.20;;;;;;;20.44;100.00;95491.75;5010550;28;101752;-63
2022/09/14 08:20:12;;;;;;;3.53;1.30;;;;;;;20.33;100.00;95488.66;5010354;28;103163;-63
2022/09/14 08:22:42;;;;;;;1.50;1.20;;;;;;;20.51;100.00;95491.97;5009842;28;102427;-64
2022/09/14 08:25:12;;;;;;;2.17;1.10;;;;;;;20.50;100.00;95499.28;5011197;28;102433;-64
2022/09/14 08:27:42;;;;;;;1.33;1.17;;;;;;;20.62;100.00;95491.22;5010231;28;102110;-64
2022/09/14 08:30:12;;;;;;;2.33;1.23;;;;;;;20.61;100.00;95497.72;5016285;28;102402;-64
2022/09/14 08:32:42;;;;;;;3.93;1.33;;;;;;;20.57;100.00;95477.94;5010257;28;102198;-64
2022/09/14 08:35:13;;;;;;;1.93;1.30;;;;;;;20.67;100.00;95479.41;5012717;28;102531;-64
2022/09/14 08:37:43;;;;;;;2.17;1.03;;;;;;;20.64;100.00;95488.97;5010493;28;101767;-64
2022/09/14 08:40:16;;;;;;;1.20;1.10;;;;;;;20.70;100.00;95479.50;5010018;28;102313;-64
2022/09/14 08:42:48;;;;;;;3.20;1.40;;;;;;;20.77;100.00;95492.47;5009121;28;102435;-64
2022/09/14 08:45:18;;;;;;;3.20;1.20;;;;;;;20.84;100.00;95485.41;5010003;28;101730;-63
2022/09/14 08:47:47;;;;;;;3.17;1.47;;;;;;;20.90;100.00;95494.91;5013407;28;103390;-64
2022/09/14 08:50:22;;;;;;;4.90;1.27;;;;;;;20.99;100.00;95487.44;5011547;28;102501;-63
2022/09/14 08:52:52;;;;;;;1.83;1.37;;;;;;;21.04;100.00;95492.63;5013051;28;102098;-63
2022/09/14 08:55:33;;;;;;;2.77;1.37;;;;;;;21.18;100.00;95486.88;5009509;28;102451;-63
2022/09/14 08:58:13;;;;;;;2.33;1.40;;;;;;;21.29;100.00;95477.19;5010125;28;101730;-64
2022/09/14 09:00:49;;;;;;;1.90;1.50;;;;;;;21.17;100.00;95499.63;5010206;28;102215;-64
2022/09/14 09:03:48;;;;;;;3.57;1.40;;;;;;;21.33;100.00;95495.13;5009249;28;102427;-64
2022/09/14 09:06:38;;;;;;;2.60;1.43;;;;;;;21.40;100.00;95494.53;5007999;28;101845;-64
2022/09/14 09:09:16;;;;;;;4.90;1.33;;;;;;;21.55;100.00;95515.50;5009853;28;102178;-65
2022/09/14 09:11:51;;;;;;;2.97;1.47;;;;;;;21.60;100.00;95507.16;5008979;28;102421;-65
2022/09/14 09:14:24;;;;;;;3.87;1.40;;;;;;;21.86;100.00;95524.59;5009759;28;102045;-65
2022/09/14 09:17:13;;;;;;;5.47;1.33;;;;;;;22.07;100.00;95522.50;5012652;28;102111;-65
2022/09/14 09:19:55;;;;;;;2.17;1.27;;;;;;;22.06;100.00;95512.03;5024339;28;101802;-65
2022/09/14 09:22:31;;;;;;;6.40;1.20;;;;;;;22.16;100.00;95517.75;5029842;27;102117;-64
2022/09/14 09:25:04;;;;;;;3.13;1.30;;;;;;;22.17;100.00;95519.31;5029380;27;102404;-64
2022/09/14 09:27:34;;;;;;;4.23;1.50;;;;;;;22.36;100.00;95518.69;5029302;27;101750;-65
2022/09/14 09:30:06;;;;;;;1.87;1.40;;;;;;;22.51;100.00;95517.97;5032644;27;102120;-64
2022/09/14 09:32:35;;;;;;;2.33;1.43;;;;;;;22.57;100.00;95522.00;5011473;28;106107;-64
2022/09/14 09:35:28;;;;;;;4.13;1.67;;;;;;;22.93;100.00;95522.56;5016578;28;101722;-64
2022/09/14 09:38:14;;;;;;;4.87;1.73;;;;;;;23.13;100.00;95534.31;5011022;28;105603;-65
2022/09/14 09:40:46;;;;;;;5.23;1.60;;;;;;;22.94;100.00;95528.81;5013584;28;103987;-64
2022/09/14 09:43:15;;;;;;;4.53;1.80;;;;;;;23.35;100.00;95520.94;5013558;28;105156;-64
2022/09/14 09:46:09;;;;;;;3.70;2.43;;;;;;;23.84;100.00;95513.94;5031473;27;102799;-63
2022/09/14 09:48:41;;;;;;;3.60;1.67;;;;;;;24.11;100.00;95517.63;5021673;28;101946;-64
2022/09/14 09:51:12;;;;;;;3.73;1.60;;;;;;;24.21;100.00;95509.72;5010694;28;105516;-64
2022/09/14 09:53:48;;;;;;;1.73;1.50;;;;;;;24.44;100.00;95509.75;5009822;28;105457;-65
2022/09/14 09:56:52;;;;;;;4.87;1.50;;;;;;;24.85;100.00;95492.69;5011793;28;101808;-65
2022/09/14 09:59:28;;;;;;;2.40;1.60;;;;;;;24.77;100.00;95507.31;5010499;28;105067;-65
2022/09/14 10:01:56;;;;;;;2.70;1.60;;;;;;;25.13;100.00;95493.19;5014807;28;102505;-65
2022/09/14 10:04:26;;;;;;;3.10;1.60;;;;;;;25.45;100.00;95498.00;5011713;28;102967;-65
2022/09/14 10:06:54;;;;;;;2.93;1.50;;;;;;;25.77;100.00;95493.03;5011029;28;103809;-65
2022/09/14 10:09:25;;;;;;;4.63;1.40;;;;;;;25.76;100.00;95486.78;5011693;28;101701;-65
2022/09/14 10:11:58;;;;;;;2.37;1.67;;;;;;;25.94;100.00;95476.19;5009220;28;105046;-65
2022/09/14 10:14:30;;;;;;;3.37;1.50;;;;;;;26.32;100.00;95473.16;5010595;28;102868;-65
2022/09/14 10:17:06;;;;;;;6.57;1.87;;;;;;;26.13;100.00;95476.00;5011261;28;101931;-65
2022/09/14 10:19:33;;;;;;;3.03;1.37;;;;;;;26.29;100.00;95460.25;5011307;28;102252;-65
2022/09/14 10:22:25;;;;;;;1.67;1.37;;;;;;;26.31;100.00;95458.72;5010484;28;102655;-65
2022/09/14 10:24:57;;;;;;;3.10;1.60;;;;;;;26.24;100.00;95445.03;5012605;28;102317;-65
2022/09/14 10:27:47;;;;;;;2.87;1.50;;;;;;;26.59;100.00;95458.28;5008901;28;105985;-65
2022/09/14 10:30:17;;;;;;;1.50;1.40;;;;;;;26.78;100.00;95455.34;5009244;28;101904;-65
2022/09/14 10:32:48;;;;;;;2.93;1.43;;;;;;;26.76;100.00;95446.75;5023142;28;105174;-65
2022/09/14 10:35:16;;;;;;;1.73;1.63;;;;;;;26.95;100.00;95443.81;5028795;28;105208;-65
2022/09/14 10:37:58;;;;;;;2.93;1.40;;;;;;;27.22;100.00;95434.31;5030340;28;101856;-65
2022/09/14 10:40:36;;;;;;;3.43;1.27;;;;;;;27.44;100.00;95427.84;5029432;28;105115;-65
2022/09/14 10:43:13;;;;;;;1.40;1.30;;;;;;;27.43;100.00;95412.63;5030112;28;102611;-65
2022/09/14 10:45:44;;;;;;;2.50;1.30;;;;;;;27.40;100.00;95421.59;5030852;27;101747;-65
2022/09/14 10:48:30;;;;;;;3.83;1.60;;;;;;;27.39;100.00;95409.88;5032102;28;103508;-65
2022/09/14 10:51:10;;;;;;;1.53;1.27;;;;;;;27.68;100.00;95408.09;5028831;28;102248;-65
2022/09/14 10:53:49;;;;;;;5.33;1.30;;;;;;;27.72;100.00;95417.06;5028658;28;105218;-65
2022/09/14 10:56:22;;;;;;;6.30;1.53;;;;;;;27.80;100.00;95405.06;5028545;28;105401;-65
2022/09/14 10:59:18;;;;;;;3.80;1.70;;;;;;;27.67;100.00;95409.25;5030464;28;101974;-65
2022/09/14 11:02:23;;;;;;;5.67;1.60;;;;;;;27.50;100.00;95390.81;5029061;28;105411;-65
2022/09/14 11:05:07;;;;;;;2.30;1.47;;;;;;;27.33;100.00;95375.09;5029768;27;103443;-65
2022/09/14 11:07:40;;;;;;;3.73;1.40;;;;;;;27.20;100.00;95379.31;5028981;28;101847;-65
2022/09/14 11:10:22;;;;;;;2.83;1.17;;;;;;;27.57;100.00;95377.22;5030363;28;102814;-65
2022/09/14 11:13:11;;;;;;;4.33;1.60;;;;;;;27.43;100.00;95377.13;5031674;28;105607;-65
2022/09/14 11:15:46;;;;;;;2.47;1.23;;;;;;;27.33;100.00;95373.16;5030364;28;102425;-65
2022/09/14 11:18:24;;;;;;;3.50;1.50;;;;;;;27.52;100.00;95372.88;5029634;28;102777;-65
2022/09/14 11:21:03;;;;;;;2.70;1.60;;;;;;;27.66;100.00;95372.16;5030246;27;101810;-65
2022/09/14 11:23:43;;;;;;;4.97;1.43;;;;;;;27.65;100.00;95362.41;5030249;27;102513;-65
2022/09/14 11:26:13;;;;;;;4.80;1.37;;;;;;;27.74;100.00;95362.84;5027748;28;105361;-65
2022/09/14 11:28:45;;;;;;;5.80;1.30;;;;;;;27.72;100.00;95365.16;5028500;28;101880;-65
2022/09/14 11:31:18;;;;;;;3.57;1.33;;;;;;;27.92;100.00;95369.19;5028339;28;102464;-65
2022/09/14 11:33:53;;;;;;;2.80;1.20;;;;;;;27.49;100.00;95356.47;5009029;28;102662;-65
2022/09/14 11:36:24;;;;;;;3.33;1.00;;;;;;;27.68;100.00;95378.03;5013003;28;101777;-65
2022/09/14 11:38:55;;;;;;;3.83;1.20;;;;;;;27.44;98.69;95363.09;5009525;28;103152;-65
2022/09/14 11:41:29;;;;;;;3.33;1.40;;;;;;;27.36;99.73;95356.00;5008162;28;102003;-65
2022/09/14 11:44:01;;;;;;;5.60;1.27;;;;;;;27.46;99.86;95360.75;5010908;28;102443;-65